To NAV CANADA Home Page Login to a new session Search on AWWS site Disclaimer Vers la page française équivalente Tips FAQ What's new on the site To the Forecasts and Observations / NOTAM section To "File a Flight Plan" website Publications and other links Update of the User's profile FIC Telephone Numbers My Weather Data Folder Route Weather Data Regional Weather Data Local Weather Data To the Forecasts and Observations / NOTAM section
Request Generated 11/30/2021 at 02:00:47 UTC . Weather information available at that time is displayed.

METAR/TAF

WINDSOR/ON    (show WxCam)

SPECI CYQG 300159Z AUTO 23010G16KT 3SM -SN OVC024 00/M02 A2998 RMK SLP161=
SPECI CYQG 300156Z AUTO 24010G16KT 3SM -SN OVC026 00/M02 A2998 RMK SLP160=
SPECI CYQG 300150Z AUTO 24010G18KT 3SM -SN -UP OVC028 01/M03 A2998 RMK SLP160=
SPECI CYQG 300144Z AUTO 24011G22KT 4SM -UP OVC034 01/M03 A2998 RMK SLP160=
SPECI CYQG 300138Z AUTO 25013G23KT 4SM -RA -UP OVC038 01/M04 A2997 RMK SLP158=
SPECI CYQG 300135Z AUTO 25010G23KT 5SM -RA OVC040 02/M04 A2997 RMK SLP158=
SPECI CYQG 300132Z AUTO 24015G23KT 200V260 5SM HZ OVC042 02/M04 A2997 RMK SLP158=
SPECI CYQG 300130Z AUTO 23016G23KT 8SM OVC046 02/M05 A2997 RMK SLP157=
METAR CYQG 300100Z AUTO 16003KT 9SM BKN060 OVC080 01/M04 A2996 RMK SLP155=
METAR CYQG 300000Z AUTO 21005KT 9SM OVC100 02/M05 A2997 RMK SLP159=
METAR CYQG 292300Z AUTO 22006KT 9SM OVC110 02/M04 A2999 RMK SLP164=

TAF AMD CYQG 300137Z 3001/3024 23012G22KT P6SM SCT015 OVC040 TEMPO
3001/3004 2SM -SNRA BR BKN015 OVC030
FM300400 22010KT 11/2SM -SN BR BKN006 OVC020
FM300800 22008KT 3SM -SN BKN020 OVC030
FM301200 26010KT P6SM BKN020
FM302000 26012KT P6SM BKN030
RMK FCST BASED ON AUTO OBS. NXT FCST BY 300600Z=

LONDON/ON    

METAR CYXU 300100Z 19005KT 15SM OVC049 M01/M04 A2997 RMK SC8 SLP162=
METAR CYXU 300000Z VRB02KT 15SM OVC046 M02/M04 A2998 RMK SC8 SLP165=
METAR CYXU 292300Z 24004KT 15SM BKN041 M01/M05 A2998 RMK SC7 SLP165=

TAF CYXU 292338Z 3000/3024 24005KT P6SM SCT020 BKN060 TEMPO 3000/3006
BKN020 OVC060
FM300600 22008KT P6SM -SN SCT015 OVC040 TEMPO 3006/3008 2SM -SN
BKN015 OVC040
FM300800 22008KT 11/2SM -SN BR OVC006
FM301400 26008KT P6SM BKN008
FM301800 24010KT P6SM BKN012
FM302200 26012G22KT 6SM -SHRASN BR OVC015
RMK NXT FCST BY 300600Z=

SARNIA (CHRIS HADFIELD)/ON    (show WxCam)

METAR CYZR 300100Z AUTO 15005KT 9SM SCT140 SCT160 M00/M03 A2995 RMK SLP153=
METAR CYZR 300000Z AUTO 16005KT 9SM SCT043 BKN180 M00/M03 A2996 RMK SLP156=
METAR CYZR 292300Z AUTO 15004KT 9SM OVC045 00/M04 A2997 RMK SLP159=

TAF CYZR 291938Z 2920/3003 27008KT P6SM BKN040
BECMG 2920/2922 22008KT
FM300000 22008KT P6SM SCT040 BKN080
RMK FCST BASED ON AUTO OBS. NXT FCST WILL BE ISSUED AT 300845Z=

KITCHENER/WATERLOO/ON    (show WxCam)

METAR CYKF 300100Z AUTO 25006KT 9SM CLR M03/M06 A2994 RMK SLP160=
METAR CYKF 300000Z AUTO 24007KT 9SM FEW200 M03/M05 A2996 RMK SLP163=
METAR CYKF 292300Z AUTO 23008KT 9SM BKN210 M01/M04 A2995 RMK SLP160=

TAF CYKF 300138Z 3002/3014 24005KT P6SM BKN050
FM300800 VRB03KT P6SM -SN OVC025 PROB30 3009/3013 2SM -FZDZ BR
OVC005
RMK FCST BASED ON AUTO OBS. NXT FCST BY 300800Z=

HAMILTON/ON    

METAR CYHM 300100Z 22004KT 15SM FEW040 FEW250 M04/M04 A2997 RMK SC1CI1 SC TR CI TR FROIN SLP165=
METAR CYHM 300000Z 23006KT 15SM FEW045 FEW250 M03/M04 A2998 RMK SC1CI1 SC TR CI TR FROIN SLP165=
METAR CYHM 292300Z 24006KT 15SM FEW055 FEW250 M02/M03 A2997 RMK SC1CI1 SC TR CI TR SLP162=

TAF CYHM 292338Z 3000/3024 24008KT P6SM SCT060
FM300600 24005KT P6SM SCT030 BKN060 TEMPO 3006/3009 BKN030 OVC060
FM300900 26005KT 6SM -SN SCT006 OVC020 TEMPO 3009/3011 11/2SM -SN
BKN006 OVC020
FM301100 12005KT 11/2SM -SN BR BKN004 OVC015 PROB30 3011/3016
3/4SM -SN
FM301600 24005KT P6SM BKN008 OVC015
FM301800 24010KT P6SM BKN015
FM302200 24012G22KT 6SM -SHRA BR OVC015
RMK NXT FCST BY 300600Z=

TORONTO/LESTER B. PEARSON INTL/ON    

METAR CYYZ 300100Z 27007KT 15SM BKN056 00/M02 A2996 RMK SC5 SLP157=
METAR CYYZ 300000Z 23004KT 15SM OVC055 00/M02 A2997 RMK SC8 SLP158=
SPECI CYYZ 292327Z 00000KT 15SM OVC055 M00/M03 A2996 RMK SC8 SLP157=
SPECI CYYZ 292309Z 13003KT 090V170 15SM -SN OVC054 M00/M03 A2997 RMK SC8 SLP158=
METAR CYYZ 292300Z 14002KT 15SM OVC052 M00/M03 A2997 RMK SC8 SLP158=

TAF CYYZ 292338Z 3000/0106 VRB03KT P6SM FEW040 SCT060 TEMPO 3000/3002
BKN040 OVC060
FM300800 24005KT P6SM BKN060
FM301100 16005KT 11/2SM -SN SCT006 OVC015 PROB30 3011/3014 3/4SM
-SHSN VV006
FM301400 22008KT 3SM -SN SCT008 OVC020 PROB30 3014/3016 BKN008
OVC020
FM301600 22008KT P6SM BKN020
FM302200 24010KT P6SM -SHRASN BKN025
FM010300 27012KT P6SM BKN030
RMK NXT FCST BY 300300Z=
Your time UTC time
Weather data provided by Environment Canada and NAV CANADA